Flight Track Log - Related Links

Times and Time Zones

All times are in EDT time to prevent confusion due to time zone crossing. See the UAL1259 flight status page for this flight to view local times or setup timezone preferences in your user account.

Time Position Orientation Groundspeed Altitude Reporting Facility
EDT Latitude Longitude Course Direction KTS MPH feet Rate Location/Type
Fri 09:05:47 PM 33.9310 -118.4630 261° West 217 250 1,800  Level FlightAware ADS-B
Fri 09:06:12 PM 33.9230 -118.4910 251° West 228 262 3,000 2,600 Climbing FlightAware ADS-B
Fri 09:06:47 PM 33.9080 -118.5390 249° West 267 307 4,400 2,500 Climbing FlightAware ADS-B
Fri 09:07:12 PM 33.8940 -118.5690 241° Southwest 272 313 5,500 3,000 Climbing FlightAware ADS-B
Fri 09:07:27 PM 33.8760 -118.5820 211° Southwest 273 314 6,400 3,360 Climbing FlightAware ADS-B
Fri 09:07:37 PM 33.8610 -118.5850 189° South 276 318 6,900 3,000 Climbing FlightAware ADS-B
Fri 09:08:07 PM 33.8220 -118.5820 176° South 288 331 8,400 2,933 Climbing FlightAware ADS-B
Fri 09:08:22 PM 33.8040 -118.5780 170° South 287 330 9,100 3,000 Climbing FlightAware ADS-B
Fri 09:08:37 PM 33.7870 -118.5640 146° Southeast 286 329 9,900 3,000 Climbing FlightAware ADS-B
Fri 09:09:02 PM 33.7740 -118.5300 115° Southeast 283 326 11,100 2,727 Climbing FlightAware ADS-B
Fri 09:09:32 PM 33.7880 -118.4860 69° East 286 329 12,400 1,440 Climbing FlightAware ADS-B
Fri 09:10:17 PM 33.8320 -118.4340 44° Northeast 323 372 12,900 1,271 Climbing FlightAware ADS-B
Fri 09:10:57 PM 33.8820 -118.3860 39° Northeast 352 405 14,200 2,250 Climbing FlightAware ADS-B
Fri 09:11:37 PM 33.9410 -118.3460 29° Northeast 367 422 15,900 2,682 Climbing FlightAware ADS-B
Fri 09:12:22 PM 34.0060 -118.2920 35° Northeast 378 435 18,000 2,682 Climbing FlightAware ADS-B
Fri 09:13:02 PM 34.0450 -118.2270 54° Northeast 380 437 19,700 2,329 Climbing FlightAware ADS-B
Fri 09:13:47 PM 34.0930 -118.1440 55° Northeast 392 451 21,300 2,118 Climbing FlightAware ADS-B
Fri 09:14:27 PM 34.1350 -118.0720 55° Northeast 402 463 22,700 2,025 Climbing FlightAware ADS-B
Fri 09:15:07 PM 34.1770 -117.9970 56° Northeast 410 472 24,000 1,976 Climbing FlightAware ADS-B
Fri 09:15:52 PM 34.2260 -117.9110 55° Northeast 414 476 25,500 1,765 Climbing FlightAware ADS-B
Fri 09:16:32 PM 34.2690 -117.8330 56° Northeast 422 486 26,500 1,412 Climbing FlightAware ADS-B
Fri 09:17:17 PM 34.3180 -117.7460 56° Northeast 432 497 27,500 1,341 Climbing FlightAware ADS-B
Fri 09:17:57 PM 34.3640 -117.6650 55° Northeast 438 504 28,400 1,350 Climbing FlightAware ADS-B
Fri 09:18:37 PM 34.4130 -117.5880 52° Northeast 444 511 29,300 1,271 Climbing FlightAware ADS-B
Fri 09:19:22 PM 34.4760 -117.5000 49° Northeast 451 519 30,200 1,200 Climbing FlightAware ADS-B
Fri 09:20:02 PM 34.5310 -117.4230 49° Northeast 454 522 31,000 1,125 Climbing FlightAware ADS-B
Fri 09:20:42 PM 34.5850 -117.3470 49° Northeast 458 527 31,700 1,200 Climbing FlightAware ADS-B
Fri 09:21:27 PM 34.6460 -117.2600 50° Northeast 457 526 32,700 1,271 Climbing FlightAware ADS-B
Fri 09:22:07 PM 34.7020 -117.1810 49° Northeast 457 526 33,500 1,341 Climbing FlightAware ADS-B
Fri 09:22:52 PM 34.7640 -117.0920 50° Northeast 453 521 34,600 1,200 Climbing FlightAware ADS-B
Fri 09:23:32 PM 34.8170 -117.0150 50° Northeast 454 522 35,200 442 Climbing FlightAware ADS-B
Fri 09:24:27 PM 34.8910 -116.9110 49° Northeast 464 534 35,300 63 Climbing FlightAware ADS-B
Fri 09:25:07 PM 34.9390 -116.8430 49° Northeast 464 534 35,300  Level FlightAware ADS-B
Fri 09:25:47 PM 34.9870 -116.7760 49° Northeast 464 534 35,300  Level FlightAware ADS-B
Fri 09:26:27 PM 35.0350 -116.7090 49° Northeast 464 534 35,300  Level FlightAware ADS-B
Fri 09:27:17 PM 35.0950 -116.6250 49° Northeast 464 534 35,300 971 Level FlightAware ADS-B
Fri 09:28:12 PM 35.2000 -116.4630 52° Northeast 455 524 37,000 1,074 Climbing FlightAware ADS-B
Fri 09:28:52 PM 35.2590 -116.3780 50° Northeast 455 524 37,000  Level FlightAware ADS-B
Fri 09:29:37 PM 35.3190 -116.2910 50° Northeast 457 526 37,000  Level FlightAware ADS-B
Fri 09:30:32 PM 35.3910 -116.1850 50° Northeast 459 528 37,000  Level FlightAware ADS-B
Fri 09:31:12 PM 35.4490 -116.0990 50° Northeast 463 533 37,000  Level FlightAware ADS-B
Fri 09:31:57 PM 35.5090 -116.0110 50° Northeast 463 533 37,000  Level FlightAware ADS-B
Fri 09:32:37 PM 35.5630 -115.9310 50° Northeast 461 531 37,000  Level FlightAware ADS-B
Fri 09:33:17 PM 35.6150 -115.8420 54° Northeast 468 539 37,000  Level FlightAware ADS-B
Fri 09:34:02 PM 35.6570 -115.7340 64° Northeast 468 539 37,000  Level FlightAware ADS-B
Fri 09:34:42 PM 35.6940 -115.6390 64° Northeast 466 536 37,000  Level FlightAware ADS-B
Fri 09:35:27 PM 35.7360 -115.5320 64° Northeast 466 536 37,000  Level FlightAware ADS-B
Fri 09:36:07 PM 35.7730 -115.4360 65° Northeast 466 536 37,000  Level FlightAware ADS-B
Fri 09:36:47 PM 35.8090 -115.3430 64° Northeast 468 539 37,000  Level FlightAware ADS-B
Fri 09:37:32 PM 35.8520 -115.2310 65° Northeast 470 541 37,000  Level FlightAware ADS-B
Fri 09:38:12 PM 35.8900 -115.1330 64° Northeast 472 543 37,000  Level FlightAware ADS-B
Fri 09:38:57 PM 35.9290 -115.0280 65° Northeast 472 543 37,000  Level FlightAware ADS-B
Fri 09:39:37 PM 35.9680 -114.9280 64° Northeast 472 543 37,000  Level FlightAware ADS-B
Fri 09:40:22 PM 36.0110 -114.8160 65° Northeast 467 537 37,000  Level FlightAware ADS-B
Fri 09:41:02 PM 36.0470 -114.7220 65° Northeast 461 531 37,000  Level FlightAware ADS-B
Fri 09:41:47 PM 36.0870 -114.6160 65° Northeast 462 532 37,000  Level FlightAware ADS-B
Fri 09:42:27 PM 36.1220 -114.5220 65° Northeast 461 531 37,000  Level FlightAware ADS-B
Fri 09:43:07 PM 36.1570 -114.4280 65° Northeast 462 532 37,000  Level FlightAware ADS-B
Fri 09:43:52 PM 36.2000 -114.3140 65° Northeast 462 532 37,000  Level FlightAware ADS-B
Fri 09:44:32 PM 36.2350 -114.2190 65° Northeast 464 534 37,000  Level FlightAware ADS-B
Fri 09:45:17 PM 36.2740 -114.1140 65° Northeast 463 533 37,000  Level FlightAware ADS-B
Fri 09:45:57 PM 36.3100 -114.0170 65° Northeast 463 533 37,000  Level FlightAware ADS-B
Fri 09:46:37 PM 36.3460 -113.9210 65° Northeast 463 533 37,000  Level FlightAware ADS-B
Fri 09:47:22 PM 36.3870 -113.8090 66° East 463 533 37,000  Level FlightAware ADS-B
Fri 09:48:02 PM 36.4230 -113.7120 65° Northeast 461 531 37,000  Level FlightAware ADS-B
Fri 09:48:42 PM 36.4580 -113.6170 65° Northeast 460 529 37,000  Level FlightAware ADS-B
Fri 09:49:27 PM 36.4970 -113.5100 66° East 460 529 37,000  Level FlightAware ADS-B
Fri 09:50:07 PM 36.5310 -113.4150 66° East 460 529 37,000  Level FlightAware ADS-B
Fri 09:50:52 PM 36.5720 -113.3030 65° Northeast 458 527 37,000  Level FlightAware ADS-B
Fri 09:51:32 PM 36.6050 -113.2110 66° East 459 528 37,000  Level FlightAware ADS-B
Fri 09:52:12 PM 36.6400 -113.1130 66° East 457 526 37,000  Level FlightAware ADS-B
Fri 09:52:57 PM 36.6780 -113.0080 66° East 455 524 37,000  Level FlightAware ADS-B
Fri 09:53:52 PM 36.7260 -112.8760 66° East 453 521 37,000  Level FlightAware ADS-B
Fri 09:54:47 PM 36.7710 -112.7490 66° East 454 522 37,000  Level FlightAware ADS-B
Fri 09:55:42 PM 36.8190 -112.6110 66° East 452 520 37,000  Level FlightAware ADS-B
Fri 09:56:17 PM 36.8470 -112.5330 66° East 450 518 37,000  Level FlightAware ADS-B
Fri 09:57:07 PM 36.8850 -112.4250 66° East 450 518 37,000  Level FlightAware ADS-B
Fri 09:57:47 PM 36.9140 -112.3440 66° East 450 518 37,000  Level FlightAware ADS-B
Fri 09:58:27 PM 36.9430 -112.2630 66° East 450 518 37,000  Level FlightAware ADS-B
Fri 09:59:17 PM 36.9790 -112.1620 66° East 450 518 37,000  Level FlightAware ADS-B
Fri 09:59:57 PM 37.0080 -112.0810 66° East 450 518 37,000  Level FlightAware ADS-B
Fri 10:00:37 PM 37.0370 -112.0000 66° East 450 518 37,000  Level FlightAware ADS-B
Fri 10:01:17 PM 37.0650 -111.9190 67° East 450 518 37,000  Level FlightAware ADS-B
Fri 10:01:57 PM 37.0940 -111.8380 66° East 450 518 37,000  Level FlightAware ADS-B
Fri 10:02:47 PM 37.1300 -111.7370 66° East 450 518 37,000  Level FlightAware ADS-B
Fri 10:03:27 PM 37.1590 -111.6560 66° East 450 518 37,000  Level FlightAware ADS-B
Fri 10:04:07 PM 37.1880 -111.5750 66° East 450 518 37,000  Level FlightAware ADS-B
Fri 10:04:47 PM 37.2160 -111.4930 67° East 450 518 37,000  Level FlightAware ADS-B
Fri 10:05:27 PM 37.2450 -111.4120 66° East 450 518 37,000  Level FlightAware ADS-B
Fri 10:06:17 PM 37.2810 -111.3110 66° East 450 518 37,000  Level FlightAware ADS-B
Fri 10:07:29 PM 37.3875 -110.9583 66° East 446 513 37,000  Level Denver Center
Fri 10:08:32 PM 37.4442 -110.7897 67° East 440 506 37,000  Level Denver Center
Fri 10:09:34 PM 37.4922 -110.6472 67° East 444 511 37,000  Level Denver Center
Fri 10:10:36 PM 37.5425 -110.4936 68° East 445 512 37,000  Level Denver Center
Fri 10:11:50 PM 37.5958 -110.3325 67° East 446 513 37,000  Level Denver Center
Fri 10:12:52 PM 37.6561 -110.1481 68° East 445 512 37,000  Level Denver Center
Fri 10:13:54 PM 37.7019 -110.0103 67° East 444 511 37,000  Level Denver Center
Fri 10:14:56 PM 37.7456 -109.8714 68° East 445 512 37,000  Level Denver Center
Fri 10:15:58 PM 37.7972 -109.7117 68° East 440 506 37,000  Level Denver Center
Fri 10:17:00 PM 37.8414 -109.5728 68° East 442 509 37,000  Level Denver Center
Fri 10:18:02 PM 37.8931 -109.4111 68° East 443 510 37,000  Level Denver Center
Fri 10:19:04 PM 37.9375 -109.2714 68° East 445 512 37,000  Level Denver Center
Fri 10:20:06 PM 37.9928 -109.1111 66° East 446 513 37,000  Level Denver Center
Fri 10:21:07 PM 38.0478 -108.9794 62° Northeast 442 509 37,000  Level Denver Center
Fri 10:27:17 PM 38.3960 -108.1140 62° Northeast 447 514 37,000  Level FlightAware ADS-B
Fri 10:27:57 PM 38.4330 -108.0200 63° Northeast 445 512 37,000  Level FlightAware ADS-B
Fri 10:28:37 PM 38.4700 -107.9260 63° Northeast 445 512 37,000  Level FlightAware ADS-B
Fri 10:29:22 PM 38.5140 -107.8140 63° Northeast 445 512 37,000 -431 Level FlightAware ADS-B
Fri 10:31:52 PM 38.6490 -107.4690 63° Northeast 433 498 35,600 -677 Descending FlightAware ADS-B
Fri 10:32:37 PM 38.6900 -107.3630 64° Northeast 435 501 34,800 -1,050 Descending FlightAware ADS-B
Fri 10:33:12 PM 38.7220 -107.2790 64° Northeast 439 505 34,200 -1,013 Descending FlightAware ADS-B
Fri 10:33:54 PM 38.7633 -107.1720 64° Northeast 445 512 33,500 -1,000 Descending FlightAware ADS-B
Fri 10:34:24 PM 38.7904 -107.1020 64° Northeast 438 504 33,000 -1,000 Descending FlightAware ADS-B
Fri 10:34:54 PM 38.8172 -107.0320 64° Northeast 433 498 32,500 -1,082 Descending FlightAware ADS-B
Fri 10:35:25 PM 38.8438 -106.9620 64° Northeast 428 493 31,900 -1,082 Descending FlightAware ADS-B
Fri 10:35:55 PM 38.8700 -106.8930 64° Northeast 426 490 31,400 -1,000 Descending FlightAware ADS-B
Fri 10:36:25 PM 38.8960 -106.8240 64° Northeast 425 489 30,900 -1,000 Descending FlightAware ADS-B
Fri 10:36:55 PM 38.9220 -106.7560 64° Northeast 425 489 30,400 -984 Descending FlightAware ADS-B
Fri 10:37:26 PM 38.9480 -106.6880 64° Northeast 424 488 29,900 -984 Descending FlightAware ADS-B
Fri 10:37:56 PM 38.9737 -106.6200 64° Northeast 421 484 29,400 -1,000 Descending FlightAware ADS-B
Fri 10:38:26 PM 38.9990 -106.5520 64° Northeast 420 483 28,900 -1,000 Descending FlightAware ADS-B
Fri 10:38:56 PM 39.0244 -106.4850 64° Northeast 419 482 28,400 -1,082 Descending FlightAware ADS-B
Fri 10:39:27 PM 39.0502 -106.4160 64° Northeast 418 481 27,800 -1,082 Descending FlightAware ADS-B
Fri 10:39:57 PM 39.0756 -106.3490 64° Northeast 416 479 27,300 -1,000 Descending FlightAware ADS-B
Fri 10:40:45 PM 39.1150 -106.2430 64° Northeast 415 478 26,500 -987 Descending FlightAware ADS-B
Fri 10:41:16 PM 39.1403 -106.1750 64° Northeast 410 472 26,000 -968 Descending FlightAware ADS-B
Fri 10:41:47 PM 39.1652 -106.1080 64° Northeast 409 471 25,500 -1,180 Descending FlightAware ADS-B
Fri 10:42:17 PM 39.1897 -106.0420 64° Northeast 405 466 24,800 -1,700 Descending FlightAware ADS-B
Fri 10:42:47 PM 39.2137 -105.9770 65° Northeast 396 456 23,800 -1,967 Descending FlightAware ADS-B
Fri 10:43:18 PM 39.2374 -105.9130 64° Northeast 389 448 22,800 -1,967 Descending FlightAware ADS-B
Fri 10:43:48 PM 39.2605 -105.8500 65° Northeast 384 442 21,800 -2,000 Descending FlightAware ADS-B
Fri 10:44:18 PM 39.2836 -105.7870 65° Northeast 378 435 20,800 -1,869 Descending FlightAware ADS-B
Fri 10:44:49 PM 39.3062 -105.7260 64° Northeast 375 432 19,900 -1,869 Descending FlightAware ADS-B
Fri 10:45:19 PM 39.3284 -105.6650 65° Northeast 374 430 18,900 -1,882 Descending FlightAware ADS-B
Fri 10:45:40 PM 39.3441 -105.6220 65° Northeast 373 429 18,300 -1,412 Descending FlightAware ADS-B
Fri 10:45:53 PM 39.3545 -105.5980 61° Northeast 372 428 18,100 -2,093 Descending FlightAware ADS-B
Fri 10:46:23 PM 39.3823 -105.5420 57° Northeast 379 436 16,800 -2,600 Descending FlightAware ADS-B
Fri 10:46:53 PM 39.4111 -105.4830 58° Northeast 380 437 15,500 -2,100 Descending FlightAware ADS-B
Fri 10:47:23 PM 39.4391 -105.4270 57° Northeast 370 426 14,700 -800 Descending FlightAware ADS-B
Fri 10:47:53 PM 39.4671 -105.3700 58° Northeast 371 427 14,700  Level FlightAware ADS-B
Fri 10:48:24 PM 39.4953 -105.3130 57° Northeast 372 428 14,700  Level FlightAware ADS-B
Fri 10:48:56 PM 39.5245 -105.2530 58° Northeast 373 429 14,700  Level FlightAware ADS-B
Fri 10:49:31 PM 39.5571 -105.1870 57° Northeast 373 429 14,700  Level FlightAware ADS-B
Fri 10:50:05 PM 39.5891 -105.1210 58° Northeast 376 433 14,700  Level FlightAware ADS-B
Fri 10:50:43 PM 39.6246 -105.0490 57° Northeast 378 435 14,700  Level FlightAware ADS-B
Fri 10:51:17 PM 39.6560 -104.9840 58° Northeast 378 435 14,700  Level FlightAware ADS-B
Fri 10:51:48 PM 39.6850 -104.9240 58° Northeast 379 436 14,700  Level FlightAware ADS-B
Fri 10:52:24 PM 39.7181 -104.8560 58° Northeast 379 436 14,700 -915 Level FlightAware ADS-B
Fri 10:52:47 PM 39.7399 -104.8120 57° Northeast 375 432 13,800 -2,250 Descending FlightAware ADS-B
Fri 10:52:56 PM 39.7494 -104.7970 51° Northeast 371 427 13,500 -1,846 Descending FlightAware ADS-B
Fri 10:53:00 PM 39.7545 -104.7900 47° Northeast 369 425 13,400 -2,182 Descending FlightAware ADS-B
Fri 10:53:07 PM 39.7637 -104.7820 34° Northeast 365 420 13,100 -2,250 Descending FlightAware ADS-B
Fri 10:53:16 PM 39.7774 -104.7730 27° Northeast 360 414 12,800 -1,714 Descending FlightAware ADS-B
Fri 10:53:21 PM 39.7853 -104.7700 16° North 359 413 12,700 -1,800 Descending FlightAware ADS-B
Fri 10:53:26 PM 39.7935 -104.7680 11° North 356 410 12,500 -2,143 Descending FlightAware ADS-B
Fri 10:53:35 PM 39.8077 -104.7670 North 352 405 12,200 -2,000 Descending FlightAware ADS-B
Fri 10:53:41 PM 39.8174 -104.7690 351° North 351 404 12,000 -2,500 Descending FlightAware ADS-B
Fri 10:53:47 PM 39.8274 -104.7720 347° North 349 402 11,700 -2,308 Descending FlightAware ADS-B
Fri 10:53:54 PM 39.8382 -104.7770 340° North 348 400 11,500 -2,087 Descending FlightAware ADS-B
Fri 10:54:10 PM 39.8623 -104.7880 341° North 346 398 10,900 -1,750 Descending FlightAware ADS-B
Fri 10:54:18 PM 39.8752 -104.7910 350° North 340 391 10,800 -750 Descending FlightAware ADS-B
Fri 10:54:26 PM 39.8867 -104.7910 360° North 335 386 10,700 -158 Descending FlightAware ADS-B
Fri 10:54:56 PM 39.9306 -104.7900 North 300 345 10,700  Level FlightAware ADS-B
Fri 10:55:26 PM 39.9694 -104.7880 North 263 303 10,700 -400 Level FlightAware ADS-B
Fri 10:55:56 PM 40.0040 -104.7860 North 242 278 10,300 -1,174 Descending FlightAware ADS-B
Fri 10:56:12 PM 40.0224 -104.7860 360° North 244 281 9,800 -1,742 Descending FlightAware ADS-B
Fri 10:56:27 PM 40.0394 -104.7850 North 245 282 9,400 -1,742 Descending FlightAware ADS-B
Fri 10:56:43 PM 40.0569 -104.7850 360° North 245 282 8,900 -1,895 Descending FlightAware ADS-B
Fri 10:56:46 PM 40.0607 -104.7840 11° North 245 282 8,800 -2,000 Descending FlightAware ADS-B
Fri 10:56:49 PM 40.0642 -104.7830 12° North 244 281 8,700 -1,714 Descending FlightAware ADS-B
Fri 10:56:53 PM 40.0682 -104.7820 11° North 245 282 8,600 -1,800 Descending FlightAware ADS-B
Fri 10:56:59 PM 40.0746 -104.7770 31° Northeast 244 281 8,400 -1,333 Descending FlightAware ADS-B
Fri 10:57:02 PM 40.0773 -104.7740 40° Northeast 243 280 8,400 -1,500 Level FlightAware ADS-B
Fri 10:57:07 PM 40.0808 -104.7690 48° Northeast 242 278 8,200 -2,000 Descending FlightAware ADS-B
Fri 10:57:11 PM 40.0833 -104.7650 51° Northeast 242 278 8,100 -1,714 Descending FlightAware ADS-B
Fri 10:57:14 PM 40.0850 -104.7600 66° East 241 277 8,000 -2,000 Descending FlightAware ADS-B
Fri 10:57:17 PM 40.0863 -104.7560 67° East 240 276 7,900 -1,714 Descending FlightAware ADS-B
Fri 10:57:21 PM 40.0870 -104.7510 80° East 239 275 7,800 -857 Descending FlightAware ADS-B
Fri 10:57:24 PM 40.0874 -104.7460 84° East 239 275 7,800  Level FlightAware ADS-B
Fri 10:57:27 PM 40.0872 -104.7420 94° East 237 273 7,800 -857 Level FlightAware ADS-B
Fri 10:57:31 PM 40.0866 -104.7370 99° East 236 272 7,700 -857 Descending FlightAware ADS-B
Fri 10:57:34 PM 40.0854 -104.7320 107° East 235 270 7,700  Level FlightAware ADS-B
Fri 10:57:37 PM 40.0840 -104.7280 115° Southeast 234 269 7,700  Level FlightAware ADS-B
Fri 10:57:41 PM 40.0822 -104.7240 120° Southeast 233 268 7,700  Level FlightAware ADS-B
Fri 10:57:45 PM 40.0793 -104.7200 133° Southeast 234 269 7,700  Level FlightAware ADS-B
Fri 10:57:49 PM 40.0761 -104.7170 144° Southeast 233 268 7,700  Level FlightAware ADS-B
Fri 10:57:52 PM 40.0734 -104.7140 140° Southeast 232 267 7,700  Level FlightAware ADS-B
Fri 10:57:55 PM 40.0700 -104.7120 156° South 232 267 7,700  Level FlightAware ADS-B
Fri 10:57:58 PM 40.0667 -104.7100 155° Southeast 231 266 7,700  Level FlightAware ADS-B
Fri 10:58:15 PM 40.0508 -104.7030 161° South 217 250 7,700  Level FlightAware ADS-B
Fri 10:58:27 PM 40.0400 -104.6980 160° South 208 239 7,700  Level FlightAware ADS-B
Fri 10:58:31 PM 40.0364 -104.6970 168° South 206 237 7,700  Level FlightAware ADS-B
Fri 10:58:35 PM 40.0322 -104.6960 170° South 205 236 7,700  Level FlightAware ADS-B
Fri 10:58:38 PM 40.0290 -104.6950 167° South 204 235 7,700 -750 Level FlightAware ADS-B
Fri 10:58:43 PM 40.0244 -104.6950 180° South 205 236 7,600 -1,333 Descending FlightAware ADS-B
Fri 10:58:47 PM 40.0211 -104.6950 180° South 207 238 7,500 -1,333 Descending FlightAware ADS-B
Fri 10:58:52 PM 40.0159 -104.6950 180° South 210 242 7,400 -1,286 Descending FlightAware ADS-B
Fri 10:59:01 PM 40.0077 -104.6950 180° South 210 242 7,200 -1,333 Descending FlightAware ADS-B
Fri 10:59:10 PM 39.9982 -104.6950 180° South 205 236 7,000 -1,250 Descending FlightAware ADS-B
Fri 10:59:25 PM 39.9847 -104.6950 180° South 195 224 6,700 -968 Descending FlightAware ADS-B
Fri 10:59:41 PM 39.9713 -104.6950 180° South 183 211 6,500 -968 Descending FlightAware ADS-B
Fri 10:59:56 PM 39.9588 -104.6950 180° South 171 197 6,200 -923 Descending FlightAware ADS-B
Fri 11:00:07 PM 39.9508 -104.6950 180° South 161 185 6,100 -632 Descending FlightAware ADS-B
Fri 11:00:15 PM 39.9443 -104.6950 180° South 156 180 6,000 -1,000 Descending FlightAware ADS-B
Fri 11:00:25 PM 39.9377 -104.6960 187° South 154 177 5,800 -900 Descending FlightAware ADS-B
Fri 11:00:35 PM 39.9303 -104.6960 180° South 153 176 5,700 -800 Descending FlightAware ADS-B
Fri 11:00:40 PM 39.9265 -104.6960 180° South 152 175 5,600 -800 Descending FlightAware ADS-B
Fri 11:00:50 PM 39.9198 -104.6960 180° South 151 174 5,500 -783 Descending FlightAware ADS-B
Fri 11:01:03 PM 39.9105 -104.6960 180° South 151 174 5,300 -632 Descending FlightAware ADS-B
Fri 11:01:09 PM 39.9068 -104.6960 180° South 151 174 5,300 -632 Level FlightAware ADS-B
Fri 11:01:22 PM 39.8975 -104.6960 180° South 151 174 5,100 -643 Descending FlightAware ADS-B
Fri 11:01:37 PM 39.8872 -104.6960 180° South 153 176 5,000 -400 Descending FlightAware ADS-B

Login

Don't have an account? Register now (free) for customized features, flight alerts, and more!